Historyczne dane pomiarowe

Dodano dane terminowe – wersja testowa.

Dane z okresu 1951-2019

Wersja bazy: 1.34 [2019-03-16, lista zmian], aktualizacja planowana na 2019-04-15

Dane meteo z obszaru Polski uzyskane na podstawie danych udostępnionych przez Instytut Meteorologii i Gospodarki Wodnej – Państwowy Instytut Badawczy.

 

Wybierz Datę:    

       

TemperaturaWilgotnośćWiatrCiśnienieOpadyŚniegCzas trwania zjawisk
 Stacja t tx tn tng RH VA  wxwx mslp ppp RRR   cm mm wxwxwxwxwxwxwx
1961-08-14 14.1 20.1 6.7 4.3-- 2.7 1.0---- 0.0------------
1961-08-13 12.2 19.0 9.6 9.0-- 4.0 0.7---- 9.5------------
1961-08-12 16.9 21.7 13.5 10.7-- 8.0 0.3---- 19.2------------
1961-08-11 19.1 25.3 17.0 15.4-- 5.3 2.0---- 0.0------------
1961-08-10 23.8 29.9 16.8 16.7-- 5.0 0.3---- 0.0------------
1961-08-09 21.1 25.5 16.2 16.2-- 7.3 1.0---- 1.9------------
1961-08-08 20.6 23.8 14.0 13.5-- 3.3 1.3---- 3.4------------
1961-08-07 20.7 24.1 13.9 11.8-- 6.7 3.7---- 0.0------------
1961-08-06 21.8 29.3 14.7 13.7-- 1.7 3.0---- 0.0------------
1961-08-05 18.5 24.8 15.0 11.2-- 3.0 0.7---- 0.0------------
1961-08-04 17.0 20.8 6.9 3.1-- 6.3 1.3---- 0.0------------
1961-08-03 13.9 19.7 10.4 11.6-- 4.0 1.3---- 0.0------------
1961-08-02 18.4 25.8 9.8 6.9-- 3.0 2.7---- 2.1------------
1961-08-01 14.8 21.8 9.7 6.3-- 4.3 1.7---- 0.0------------
1961-07-31 12.9 15.9 11.5 5.3-- 7.0 3.3---- 9.8------------
1961-07-30 12.8 15.3 10.1 8.7-- 8.0 2.0---- 9.1------------
1961-07-29 13.5 18.3 11.8 11.8-- 7.3 1.7---- 2.6------------
1961-07-28 17.8 21.7 15.5 13.6-- 8.0 2.3---- 16.7------------
1961-07-27 19.2 25.3 17.2 11.6-- 6.3 2.3---- 2.6------------
1961-07-26 17.5 22.7 7.5 3.8-- 2.0 2.3---- 0.0------------
1961-07-25 13.3 16.9 10.9 5.1-- 8.0 1.7---- 0.0------------
1961-07-24 13.9 18.3 9.5 6.8-- 8.0 2.0---- 0.0------------
1961-07-23 14.4 21.4 11.5 10.3-- 6.7 0.3---- 0.0------------
1961-07-22 14.4 18.1 10.6 10.0-- 6.7 0.3---- 4.0------------
1961-07-21 16.0 19.4 9.8 7.4-- 8.0 1.3---- 1.9------------
1961-07-20 14.0 18.4 9.6 6.8-- 6.7 1.0---- 0.8------------
1961-07-19 14.2 19.4 10.5 7.7-- 8.0 0.0---- 9.1------------
1961-07-18 14.8 19.4 9.8 6.7-- 7.7 0.7---- 0.0------------
1961-07-17 14.7 19.4 11.3 7.9-- 5.7 2.7---- 2.6------------
1961-07-16 16.6 22.3 12.8 12.9-- 8.0 2.7---- 0.0------------
1961-07-15 18.4 23.8 14.2 11.3-- 5.7 3.3---- 24.8------------
1961-07-14 16.2 20.4 12.8 11.4-- 5.7 2.0---- 0.0------------
1961-07-13 20.2 27.0 14.1 10.3-- 3.7 3.3---- 22.6------------
1961-07-12 21.4 27.3 13.5 10.7-- 1.7 2.0---- 0.0------------
1961-07-11 16.8 23.3 6.6 3.1-- 4.7 0.7---- 0.0------------
1961-07-10 14.3 19.5 9.4 5.8-- 8.0 1.0---- 0.0------------
1961-07-09 14.1 18.0 8.9 6.0-- 5.0 2.7---- 5.6------------
1961-07-08 14.4 21.0 5.8 2.8-- 3.0 0.3---- 0.0------------
1961-07-07 13.0 17.1 8.3 4.8-- 7.3 1.0---- 0.0------------
1961-07-06 12.5 17.1 7.0 6.3-- 8.0 1.3---- 0.0------------
1961-07-05 13.6 18.1 12.1 12.3-- 5.3 2.7---- 0.0------------
1961-07-04 19.6 29.3 16.1 12.4-- 5.0 2.7---- 10.9------------
1961-07-03 22.9 30.9 13.4 11.2-- 0.0 2.3---- 0.0------------
1961-07-02 22.6 29.2 11.1 7.1-- 0.0 0.7---- 0.0------------
1961-07-01 19.4 27.3 10.2 8.1-- 0.0 0.0---- 0.0------------
1961-06-30 17.8 24.6 8.3 1.9-- 3.3 0.7---- 0.0------------
1961-06-29 17.2 21.1 9.6 3.3-- 2.0 2.3---- 0.0------------
1961-06-28 12.8 21.2 10.2 13.6-- 4.0 3.0---- 0.0------------
1961-06-27 23.1 30.3 18.8 11.6-- 4.3 2.7---- 26.7------------
1961-06-26 21.0 27.0 16.5 12.9-- 2.7 1.0---- 1.3------------
1961-06-25 22.8 29.3 12.9 8.1-- 0.0 0.7---- 0.0------------
1961-06-24 18.1 24.5 10.5 7.2-- 1.0 1.3---- 0.0------------
1961-06-23 18.3 26.7 11.3 9.0-- 4.7 2.0---- 0.0------------
1961-06-22 19.4 26.8 7.7 4.2-- 2.0 3.0---- 8.1------------
1961-06-21 18.5 23.9 5.1 3.9-- 2.7 1.3---- 0.0------------
1961-06-20 13.5 19.7 9.0 5.4-- 1.7 3.7---- 0.0------------
1961-06-19 18.0 22.8 12.8 9.7-- 5.3 2.3---- 0.4------------
1961-06-18 19.5 26.7 8.3 5.3-- 0.0 1.7---- 0.0------------
1961-06-17 15.5 21.8 6.9 3.6-- 0.7 1.0---- 0.0------------
1961-06-16 13.3 19.1 6.5 4.9-- 0.7 0.0---- 0.0------------
422.2 ms

 

Źródłem pochodzenia danych jest Instytut Meteorologii i Gospodarki Wodnej – Państwowy Instytut Badawczy. Dane Instytutu Meteorologii i Gospodarki Wodnej – Państwowego Instytutu Badawczego zostały przetworzone.

Dane źródłowe można odnaleźć na stronie https://dane.imgw.pl